DTTBDTTJ

Guest
Details From DTTB - Sidi Ahmed Air Base
To DTTJ - Djerba Zarzis
Flight Number -
Tags Generated
Created
Modified
Stats Distance 208 nm / 385 km
Max Altitude 0 ft / 0 m
Waypoints 2
Social Downloads 0
Likes 0
Share VATSIM

Download

Looking for another format? Having issues loading an existing format? Contact us
Advertisement - Login to hide

Notes

Generated

Route

DTTB DTTJ

ID Type Via Altitude Latitude Longitude Leg Dist Tot Dist Heading (true) Name
O DTTB APT - 0 ft / 0 m 37.24916˚ 9.79255˚ - 0 nm - -
O DTTJ APT - 0 ft / 0 m 33.87503˚ 10.76034˚ 208 nm 208 nm 167° / 167° -

Altitude Profile

Advertisement - Login to hide

Weather


0- 5 10 15 20 25 30 35+ Temperature / ° C

Clouds and Precipitation
Forecast for 2017-12-13 18:00 UTC. Updated 20 minutes ago

Ground ~20,000 ft ~40,000 ft Winds

DTTB

Details ICAO DTTB
Name SIDI AHMED AIR BASE
Region Tunisia
Timezone Africa/Tunis (UTC+1.0)
Stats Elevation 20 ft / 6 m (AMSL)
Location 37.244723° 9.792761°
Runways 2
Magnetic Variation 2.347° E

METAR

DTTB 131300Z 26008KT 9999 SCT016 FEW023CB SCT030 14/13 Q1023 CB/NW

Decode

TAF

Not found

Departure Runways

ID Width Length Bearing (true) Bearing (mag) Surface Threshold Offset Overrun Length
08 166 ft / 51 m 9,825 ft / 2,995 m 81.89° 79.54° Asphalt 0 ft / 0 m 1,145 ft / 349 m
11 164 ft / 50 m 3,969 ft / 1,210 m 110.85° 108.50° Concrete 0 ft / 0 m 0 ft / 0 m
26 166 ft / 51 m 9,825 ft / 2,995 m 261.91° 259.56° Asphalt 0 ft / 0 m 0 ft / 0 m
29 164 ft / 50 m 3,969 ft / 1,210 m 290.86° 288.51° Concrete 0 ft / 0 m 0 ft / 0 m

DTTJ

Details ICAO DTTJ (DJE)
Name Djerba Zarzis
Region Tunisia
Timezone Africa/Tunis (UTC+1.0)
Stats Elevation 18 ft / 5 m (AMSL)
Location 33.875447° 10.777153°
Runways 1
Magnetic Variation 2.327° E

METAR

DTTJ 131330Z 31007KT CAVOK 18/05 Q1022 NOSIG

Decode

TAF

TAF DTTJ 131110Z 1312/1412 29010KT CAVOK

Decode

Destination Runways

ID Width Length Bearing (true) Bearing (mag) Surface Threshold Offset Overrun Length
09 148 ft / 45 m 10,191 ft / 3,106 m 88.28° 85.95° Asphalt 0 ft / 0 m 197 ft / 60 m
27 148 ft / 45 m 10,191 ft / 3,106 m 268.30° 265.97° Asphalt 0 ft / 0 m 197 ft / 60 m

Approach Navaids

Runway Type Ident Frequency Range Bearing (true) Bearing (mag) Slope Elevation
09 Localiser JAZ 109.50 MHz 18 nm / 33 km 88.31° 85.98° - 18 ft / 5 m (AMSL)
09 Glidescope JAZ 109.50 MHz 10 nm / 19 km 88.29° 85.96° 3.00° 18 ft / 5 m (AMSL)